sensor_id;sensor_type;location;lat;lon;timestamp;pressure;altitude;pressure_sealevel;temperature;humidity
23321;BME280;33376;51.306;4.752;2023-06-10T00:01:42;101510.47;;;21.27;100.00
23321;BME280;33376;51.306;4.752;2023-06-10T00:04:08;101523.63;;;21.20;100.00
23321;BME280;33376;51.306;4.752;2023-06-10T00:06:33;101524.47;;;21.21;100.00
23321;BME280;33376;51.306;4.752;2023-06-10T00:09:01;101542.16;;;21.04;100.00
23321;BME280;33376;51.306;4.752;2023-06-10T00:11:26;101540.16;;;21.06;100.00
23321;BME280;33376;51.306;4.752;2023-06-10T00:13:51;101548.91;;;20.99;100.00
23321;BME280;33376;51.306;4.752;2023-06-10T00:16:17;101561.44;;;20.89;100.00
23321;BME280;33376;51.306;4.752;2023-06-10T00:18:42;101559.75;;;20.88;100.00
23321;BME280;33376;51.306;4.752;2023-06-10T00:21:08;101566.91;;;20.78;100.00
23321;BME280;33376;51.306;4.752;2023-06-10T00:23:34;101571.00;;;20.72;100.00
23321;BME280;33376;51.306;4.752;2023-06-10T00:26:02;101578.41;;;20.59;100.00
23321;BME280;33376;51.306;4.752;2023-06-10T00:28:27;101594.91;;;20.45;100.00
23321;BME280;33376;51.306;4.752;2023-06-10T00:30:53;101593.91;;;20.46;100.00
23321;BME280;33376;51.306;4.752;2023-06-10T00:33:18;101592.94;;;20.47;100.00
23321;BME280;33376;51.306;4.752;2023-06-10T00:35:43;101612.94;;;20.33;100.00
23321;BME280;33376;51.306;4.752;2023-06-10T00:38:08;101599.69;;;20.42;100.00
23321;BME280;33376;51.306;4.752;2023-06-10T00:40:38;101605.47;;;20.37;100.00
23321;BME280;33376;51.306;4.752;2023-06-10T00:43:04;101615.41;;;20.25;100.00
23321;BME280;33376;51.306;4.752;2023-06-10T00:45:29;101616.41;;;20.24;100.00
23321;BME280;33376;51.306;4.752;2023-06-10T00:47:55;101615.41;;;20.25;100.00
23321;BME280;33376;51.306;4.752;2023-06-10T00:50:20;101628.25;;;20.11;100.00
23321;BME280;33376;51.306;4.752;2023-06-10T00:52:45;101624.25;;;20.16;100.00
23321;BME280;33376;51.306;4.752;2023-06-10T00:55:13;101629.50;;;20.07;100.00
23321;BME280;33376;51.306;4.752;2023-06-10T00:57:39;101634.03;;;20.06;100.00
23321;BME280;33376;51.306;4.752;2023-06-10T01:00:04;101634.91;;;19.96;100.00
23321;BME280;33376;51.306;4.752;2023-06-10T01:02:32;101630.34;;;19.96;100.00
23321;BME280;33376;51.306;4.752;2023-06-10T01:04:58;101628.78;;;19.94;100.00
23321;BME280;33376;51.306;4.752;2023-06-10T01:07:24;101633.19;;;19.84;100.00
23321;BME280;33376;51.306;4.752;2023-06-10T01:09:55;101639.06;;;19.78;100.00
23321;BME280;33376;51.306;4.752;2023-06-10T01:14:50;101632.81;;;19.77;100.00
23321;BME280;33376;51.306;4.752;2023-06-10T01:17:16;101632.81;;;19.77;100.00
23321;BME280;33376;51.306;4.752;2023-06-10T01:19:43;101634.06;;;19.73;100.00
23321;BME280;33376;51.306;4.752;2023-06-10T01:22:09;101640.66;;;19.69;100.00
23321;BME280;33376;51.306;4.752;2023-06-10T01:24:35;101650.72;;;19.67;100.00
23321;BME280;33376;51.306;4.752;2023-06-10T01:27:01;101637.59;;;19.63;100.00
23321;BME280;33376;51.306;4.752;2023-06-10T01:29:33;101644.81;;;19.51;100.00
23321;BME280;33376;51.306;4.752;2023-06-10T01:32:14;101639.91;;;19.45;100.00
23321;BME280;33376;51.306;4.752;2023-06-10T01:34:41;101648.97;;;19.44;100.00
23321;BME280;33376;51.306;4.752;2023-06-10T01:37:07;101650.66;;;19.45;100.00
23321;BME280;33376;51.306;4.752;2023-06-10T01:39:35;101646.66;;;19.40;100.00
23321;BME280;33376;51.306;4.752;2023-06-10T01:42:00;101643.34;;;19.36;100.00
23321;BME280;33376;51.306;4.752;2023-06-10T01:44:27;101646.53;;;19.41;100.00
23321;BME280;33376;51.306;4.752;2023-06-10T01:46:52;101653.59;;;19.31;100.00
23321;BME280;33376;51.306;4.752;2023-06-10T01:49:18;101655.19;;;19.34;100.00
23321;BME280;33376;51.306;4.752;2023-06-10T01:51:43;101643.16;;;19.27;100.00
23321;BME280;33376;51.306;4.752;2023-06-10T01:54:08;101647.09;;;19.23;100.00
23321;BME280;33376;51.306;4.752;2023-06-10T01:56:33;101654.66;;;19.18;100.00
23321;BME280;33376;51.306;4.752;2023-06-10T01:58:59;101652.53;;;19.10;100.00
23321;BME280;33376;51.306;4.752;2023-06-10T02:01:25;101652.78;;;19.07;100.00
23321;BME280;33376;51.306;4.752;2023-06-10T02:03:50;101661.19;;;19.03;100.00
23321;BME280;33376;51.306;4.752;2023-06-10T02:06:15;101659.50;;;19.02;100.00
23321;BME280;33376;51.306;4.752;2023-06-10T02:08:41;101664.75;;;19.03;100.00
23321;BME280;33376;51.306;4.752;2023-06-10T02:11:06;101664.00;;;19.01;100.00
23321;BME280;33376;51.306;4.752;2023-06-10T02:13:32;101668.63;;;18.99;100.00
23321;BME280;33376;51.306;4.752;2023-06-10T02:15:57;101662.97;;;18.91;100.00
23321;BME280;33376;51.306;4.752;2023-06-10T02:18:22;101663.09;;;18.89;100.00
23321;BME280;33376;51.306;4.752;2023-06-10T02:20:48;101659.78;;;18.86;100.00
23321;BME280;33376;51.306;4.752;2023-06-10T02:23:13;101676.63;;;18.77;100.00
23321;BME280;33376;51.306;4.752;2023-06-10T02:25:39;101675.47;;;18.68;100.00
23321;BME280;33376;51.306;4.752;2023-06-10T02:28:05;101672.19;;;18.65;100.00
23321;BME280;33376;51.306;4.752;2023-06-10T02:30:30;101685.09;;;18.60;100.00
23321;BME280;33376;51.306;4.752;2023-06-10T02:32:55;101673.72;;;18.56;100.00
23321;BME280;33376;51.306;4.752;2023-06-10T02:35:21;101681.88;;;18.55;100.00
23321;BME280;33376;51.306;4.752;2023-06-10T02:37:49;101684.22;;;18.59;100.00
23321;BME280;33376;51.306;4.752;2023-06-10T02:40:14;101689.06;;;18.54;100.00
23321;BME280;33376;51.306;4.752;2023-06-10T02:42:39;101682.97;;;18.52;100.00
23321;BME280;33376;51.306;4.752;2023-06-10T02:45:05;101690.41;;;18.49;100.00
23321;BME280;33376;51.306;4.752;2023-06-10T02:47:30;101689.78;;;18.45;100.00
23321;BME280;33376;51.306;4.752;2023-06-10T02:49:55;101700.16;;;18.50;100.00
23321;BME280;33376;51.306;4.752;2023-06-10T02:52:21;101695.03;;;18.47;100.00
23321;BME280;33376;51.306;4.752;2023-06-10T02:54:46;101694.38;;;18.43;100.00
23321;BME280;33376;51.306;4.752;2023-06-10T02:57:11;101703.44;;;18.42;100.00
23321;BME280;33376;51.306;4.752;2023-06-10T02:59:37;101703.44;;;18.42;100.00
23321;BME280;33376;51.306;4.752;2023-06-10T03:02:02;101696.13;;;18.44;100.00
23321;BME280;33376;51.306;4.752;2023-06-10T03:04:27;101705.56;;;18.37;100.00
23321;BME280;33376;51.306;4.752;2023-06-10T03:06:54;101707.59;;;18.34;100.00
23321;BME280;33376;51.306;4.752;2023-06-10T03:09:19;101713.53;;;18.26;100.00
23321;BME280;33376;51.306;4.752;2023-06-10T03:11:44;101706.97;;;18.30;100.00
23321;BME280;33376;51.306;4.752;2023-06-10T03:14:10;101714.06;;;18.31;100.00
23321;BME280;33376;51.306;4.752;2023-06-10T03:16:35;101710.84;;;18.26;100.00
23321;BME280;33376;51.306;4.752;2023-06-10T03:19:00;101711.84;;;18.25;100.00
23321;BME280;33376;51.306;4.752;2023-06-10T03:21:25;101708.81;;;18.30;100.00
23321;BME280;33376;51.306;4.752;2023-06-10T03:23:51;101711.91;;;18.24;100.00
23321;BME280;33376;51.306;4.752;2023-06-10T03:26:17;101722.28;;;18.17;100.00
23321;BME280;33376;51.306;4.752;2023-06-10T03:28:42;101720.13;;;18.10;100.00
23321;BME280;33376;51.306;4.752;2023-06-10T03:31:07;101717.44;;;18.10;100.00
23321;BME280;33376;51.306;4.752;2023-06-10T03:33:33;101728.84;;;18.01;100.00
23321;BME280;33376;51.306;4.752;2023-06-10T03:35:58;101731.75;;;17.98;100.00
23321;BME280;33376;51.306;4.752;2023-06-10T03:38:23;101730.13;;;17.95;100.00
23321;BME280;33376;51.306;4.752;2023-06-10T03:43:47;101731.22;;;17.93;100.00
23321;BME280;33376;51.306;4.752;2023-06-10T03:46:13;101733.88;;;17.93;100.00
23321;BME280;33376;51.306;4.752;2023-06-10T03:48:40;101731.75;;;17.98;100.00
23321;BME280;33376;51.306;4.752;2023-06-10T03:51:08;101729.38;;;18.06;100.00
23321;BME280;33376;51.306;4.752;2023-06-10T03:53:33;101731.53;;;18.01;100.00
23321;BME280;33376;51.306;4.752;2023-06-10T03:55:58;101747.19;;;17.94;100.00
23321;BME280;33376;51.306;4.752;2023-06-10T03:58:24;101733.44;;;17.99;100.00
23321;BME280;33376;51.306;4.752;2023-06-10T04:00:50;101739.69;;;17.99;100.00
23321;BME280;33376;51.306;4.752;2023-06-10T04:03:16;101731.41;;;18.02;100.00
23321;BME280;33376;51.306;4.752;2023-06-10T04:05:41;101728.63;;;18.04;100.00
23321;BME280;33376;51.306;4.752;2023-06-10T04:08:07;101731.63;;;17.99;100.00
23321;BME280;33376;51.306;4.752;2023-06-10T04:10:32;101729.91;;;18.11;100.00
23321;BME280;33376;51.306;4.752;2023-06-10T04:12:58;101732.25;;;18.15;100.00
23321;BME280;33376;51.306;4.752;2023-06-10T04:15:23;101729.13;;;18.21;100.00
23321;BME280;33376;51.306;4.752;2023-06-10T04:17:48;101740.19;;;18.17;100.00
23321;BME280;33376;51.306;4.752;2023-06-10T04:20:14;101725.75;;;18.30;100.00
23321;BME280;33376;51.306;4.752;2023-06-10T04:22:39;101730.41;;;18.41;100.00
23321;BME280;33376;51.306;4.752;2023-06-10T04:25:04;101720.19;;;18.46;100.00
23321;BME280;33376;51.306;4.752;2023-06-10T04:27:30;101732.63;;;18.47;100.00
23321;BME280;33376;51.306;4.752;2023-06-10T04:29:55;101731.41;;;18.51;100.00
23321;BME280;33376;51.306;4.752;2023-06-10T04:32:21;101731.72;;;18.59;100.00
23321;BME280;33376;51.306;4.752;2023-06-10T04:34:46;101731.41;;;18.63;100.00
23321;BME280;33376;51.306;4.752;2023-06-10T04:37:11;101747.69;;;18.73;100.00
23321;BME280;33376;51.306;4.752;2023-06-10T04:39:37;101737.41;;;18.90;100.00
23321;BME280;33376;51.306;4.752;2023-06-10T04:42:02;101731.56;;;18.97;100.00
23321;BME280;33376;51.306;4.752;2023-06-10T04:44:27;101731.94;;;19.03;100.00
23321;BME280;33376;51.306;4.752;2023-06-10T04:46:52;101740.53;;;19.08;100.00
23321;BME280;33376;51.306;4.752;2023-06-10T04:49:18;101732.50;;;19.19;100.00
23321;BME280;33376;51.306;4.752;2023-06-10T04:51:43;101725.34;;;19.31;100.00
23321;BME280;33376;51.306;4.752;2023-06-10T04:54:08;101721.44;;;19.35;100.00
23321;BME280;33376;51.306;4.752;2023-06-10T04:56:34;101712.47;;;19.58;100.00
23321;BME280;33376;51.306;4.752;2023-06-10T04:58:59;101723.31;;;19.56;100.00
23321;BME280;33376;51.306;4.752;2023-06-10T05:01:24;101712.09;;;19.62;100.00
23321;BME280;33376;51.306;4.752;2023-06-10T05:03:50;101702.09;;;19.86;100.00
23321;BME280;33376;51.306;4.752;2023-06-10T05:06:15;101700.59;;;20.04;100.00
23321;BME280;33376;51.306;4.752;2023-06-10T05:08:41;101709.41;;;19.95;100.00
23321;BME280;33376;51.306;4.752;2023-06-10T05:11:06;101707.22;;;20.00;100.00
23321;BME280;33376;51.306;4.752;2023-06-10T05:13:31;101695.09;;;20.17;100.00
23321;BME280;33376;51.306;4.752;2023-06-10T05:15:57;101690.56;;;20.28;100.00
23321;BME280;33376;51.306;4.752;2023-06-10T05:18:22;101676.28;;;20.60;100.00
23321;BME280;33376;51.306;4.752;2023-06-10T05:20:47;101645.34;;;21.27;100.00
23321;BME280;33376;51.306;4.752;2023-06-10T05:23:13;101544.38;;;22.75;100.00
23321;BME280;33376;51.306;4.752;2023-06-10T05:25:40;101448.81;;;23.58;100.00
23321;BME280;33376;51.306;4.752;2023-06-10T05:28:06;101377.78;;;23.99;100.00
23321;BME280;33376;51.306;4.752;2023-06-10T05:30:34;101327.84;;;24.52;100.00
23321;BME280;33376;51.306;4.752;2023-06-10T05:33:00;101256.41;;;25.59;100.00
23321;BME280;33376;51.306;4.752;2023-06-10T05:35:25;101190.81;;;25.86;100.00
23321;BME280;33376;51.306;4.752;2023-06-10T05:37:50;101191.03;;;25.77;100.00
23321;BME280;33376;51.306;4.752;2023-06-10T05:40:15;101179.78;;;25.96;100.00
23321;BME280;33376;51.306;4.752;2023-06-10T05:42:40;101129.16;;;26.03;100.00
23321;BME280;33376;51.306;4.752;2023-06-10T05:45:06;101073.91;;;26.64;100.00
23321;BME280;33376;51.306;4.752;2023-06-10T05:47:32;101055.16;;;26.46;100.00
23321;BME280;33376;51.306;4.752;2023-06-10T05:49:57;100986.44;;;27.41;100.00
23321;BME280;33376;51.306;4.752;2023-06-10T05:52:22;100952.72;;;28.13;100.00
23321;BME280;33376;51.306;4.752;2023-06-10T05:54:48;100950.91;;;27.20;100.00
23321;BME280;33376;51.306;4.752;2023-06-10T05:57:14;100978.63;;;27.53;100.00
23321;BME280;33376;51.306;4.752;2023-06-10T05:59:39;101022.81;;;26.96;100.00
23321;BME280;33376;51.306;4.752;2023-06-10T06:02:05;100997.28;;;27.70;100.00
23321;BME280;33376;51.306;4.752;2023-06-10T06:04:30;100881.56;;;28.29;100.00
23321;BME280;33376;51.306;4.752;2023-06-10T06:06:55;100928.84;;;27.94;100.00
23321;BME280;33376;51.306;4.752;2023-06-10T06:09:21;100934.38;;;27.86;100.00
23321;BME280;33376;51.306;4.752;2023-06-10T06:11:46;100897.81;;;27.95;100.00
23321;BME280;33376;51.306;4.752;2023-06-10T06:14:11;100906.63;;;27.97;100.00
23321;BME280;33376;51.306;4.752;2023-06-10T06:16:37;100911.00;;;27.92;100.00
23321;BME280;33376;51.306;4.752;2023-06-10T06:19:02;100935.34;;;28.35;100.00
23321;BME280;33376;51.306;4.752;2023-06-10T06:21:27;100898.06;;;29.04;100.00
23321;BME280;33376;51.306;4.752;2023-06-10T06:23:52;100790.66;;;29.38;100.00
23321;BME280;33376;51.306;4.752;2023-06-10T06:26:18;100810.56;;;28.78;100.00
23321;BME280;33376;51.306;4.752;2023-06-10T06:28:43;100883.25;;;28.86;100.00
23321;BME280;33376;51.306;4.752;2023-06-10T06:31:08;100792.16;;;28.93;100.00
23321;BME280;33376;51.306;4.752;2023-06-10T06:33:33;100837.56;;;28.67;100.00
23321;BME280;33376;51.306;4.752;2023-06-10T06:35:59;100889.34;;;28.32;100.00
23321;BME280;33376;51.306;4.752;2023-06-10T06:38:25;100825.84;;;29.07;100.00
23321;BME280;33376;51.306;4.752;2023-06-10T06:40:50;100786.19;;;28.77;100.00
23321;BME280;33376;51.306;4.752;2023-06-10T06:43:15;100748.16;;;29.16;100.00
23321;BME280;33376;51.306;4.752;2023-06-10T06:45:42;100873.63;;;28.90;100.00
23321;BME280;33376;51.306;4.752;2023-06-10T06:48:07;100735.22;;;29.83;100.00
23321;BME280;33376;51.306;4.752;2023-06-10T06:50:32;100797.22;;;29.03;100.00
23321;BME280;33376;51.306;4.752;2023-06-10T06:52:58;100730.81;;;29.88;100.00
23321;BME280;33376;51.306;4.752;2023-06-10T06:55:23;100821.28;;;28.80;100.00
23321;BME280;33376;51.306;4.752;2023-06-10T06:57:48;100754.34;;;28.97;100.00
23321;BME280;33376;51.306;4.752;2023-06-10T07:00:14;100764.31;;;29.17;100.00
23321;BME280;33376;51.306;4.752;2023-06-10T07:02:39;100732.06;;;29.66;100.00
23321;BME280;33376;51.306;4.752;2023-06-10T07:05:05;100690.38;;;30.17;100.00
23321;BME280;33376;51.306;4.752;2023-06-10T07:07:30;100684.31;;;29.56;100.00
23321;BME280;33376;51.306;4.752;2023-06-10T07:09:55;100726.59;;;29.66;100.00
23321;BME280;33376;51.306;4.752;2023-06-10T07:12:21;100671.31;;;29.71;100.00
23321;BME280;33376;51.306;4.752;2023-06-10T07:14:49;100756.44;;;29.48;100.00
23321;BME280;33376;51.306;4.752;2023-06-10T07:17:14;100716.06;;;30.09;100.00
23321;BME280;33376;51.306;4.752;2023-06-10T07:19:39;100639.03;;;30.69;100.00
23321;BME280;33376;51.306;4.752;2023-06-10T07:22:04;100644.09;;;30.15;100.00
23321;BME280;33376;51.306;4.752;2023-06-10T07:24:30;100544.63;;;31.77;100.00
23321;BME280;33376;51.306;4.752;2023-06-10T07:26:55;100619.84;;;30.76;100.00
23321;BME280;33376;51.306;4.752;2023-06-10T07:29:20;100605.56;;;30.67;100.00
23321;BME280;33376;51.306;4.752;2023-06-10T07:31:45;100576.78;;;30.89;100.00
23321;BME280;33376;51.306;4.752;2023-06-10T07:34:11;100671.06;;;29.92;100.00
23321;BME280;33376;51.306;4.752;2023-06-10T07:36:36;100595.19;;;30.82;100.00
23321;BME280;33376;51.306;4.752;2023-06-10T07:39:01;100416.25;;;33.37;100.00
23321;BME280;33376;51.306;4.752;2023-06-10T07:41:27;100263.59;;;34.57;100.00
23321;BME280;33376;51.306;4.752;2023-06-10T07:43:55;100418.41;;;32.42;100.00
23321;BME280;33376;51.306;4.752;2023-06-10T07:46:21;100460.56;;;31.82;100.00
23321;BME280;33376;51.306;4.752;2023-06-10T07:48:47;100464.38;;;32.58;100.00
23321;BME280;33376;51.306;4.752;2023-06-10T07:51:12;100478.88;;;31.88;100.00
23321;BME280;33376;51.306;4.752;2023-06-10T07:53:37;100534.38;;;31.23;100.00
23321;BME280;33376;51.306;4.752;2023-06-10T07:56:03;100513.34;;;32.73;100.00
23321;BME280;33376;51.306;4.752;2023-06-10T07:58:28;100453.31;;;32.88;100.00
23321;BME280;33376;51.306;4.752;2023-06-10T08:00:53;100492.16;;;32.39;100.00
23321;BME280;33376;51.306;4.752;2023-06-10T08:03:19;100488.09;;;32.23;100.00
23321;BME280;33376;51.306;4.752;2023-06-10T08:05:44;100376.41;;;32.12;100.00
23321;BME280;33376;51.306;4.752;2023-06-10T08:08:09;100402.88;;;32.07;100.00
23321;BME280;33376;51.306;4.752;2023-06-10T08:10:35;100416.41;;;32.72;100.00
23321;BME280;33376;51.306;4.752;2023-06-10T08:13:00;100320.59;;;33.78;100.00
23321;BME280;33376;51.306;4.752;2023-06-10T08:15:25;100305.13;;;33.33;100.00
23321;BME280;33376;51.306;4.752;2023-06-10T08:17:50;100182.56;;;35.17;100.00
23321;BME280;33376;51.306;4.752;2023-06-10T08:20:16;100193.03;;;34.51;100.00
23321;BME280;33376;51.306;4.752;2023-06-10T08:22:41;100396.19;;;33.48;100.00
23321;BME280;33376;51.306;4.752;2023-06-10T08:25:07;100379.22;;;33.39;100.00
23321;BME280;33376;51.306;4.752;2023-06-10T08:27:33;100262.75;;;33.73;100.00
23321;BME280;33376;51.306;4.752;2023-06-10T08:29:58;100158.78;;;35.70;100.00
23321;BME280;33376;51.306;4.752;2023-06-10T08:32:25;100136.94;;;35.05;100.00
23321;BME280;33376;51.306;4.752;2023-06-10T08:34:50;100297.25;;;33.64;100.00
23321;BME280;33376;51.306;4.752;2023-06-10T08:37:16;100044.31;;;36.14;100.00
23321;BME280;33376;51.306;4.752;2023-06-10T08:39:41;100260.31;;;34.05;100.00
23321;BME280;33376;51.306;4.752;2023-06-10T08:42:11;100161.28;;;34.43;100.00
23321;BME280;33376;51.306;4.752;2023-06-10T08:44:39;100253.59;;;34.34;100.00
23321;BME280;33376;51.306;4.752;2023-06-10T08:47:14;100189.84;;;34.04;100.00
23321;BME280;33376;51.306;4.752;2023-06-10T08:49:44;100173.25;;;33.82;100.00
23321;BME280;33376;51.306;4.752;2023-06-10T08:52:11;100195.53;;;34.36;100.00
23321;BME280;33376;51.306;4.752;2023-06-10T08:54:38;100352.88;;;33.83;100.00
23321;BME280;33376;51.306;4.752;2023-06-10T08:57:06;100100.53;;;35.34;100.00
23321;BME280;33376;51.306;4.752;2023-06-10T08:59:32;100162.63;;;34.62;100.00
23321;BME280;33376;51.306;4.752;2023-06-10T09:01:57;100195.28;;;34.37;100.00
23321;BME280;33376;51.306;4.752;2023-06-10T09:04:24;100163.59;;;34.35;100.00
23321;BME280;33376;51.306;4.752;2023-06-10T09:06:49;100137.81;;;34.41;100.00
23321;BME280;33376;51.306;4.752;2023-06-10T09:09:15;100199.81;;;34.27;100.00
23321;BME280;33376;51.306;4.752;2023-06-10T09:11:43;100123.63;;;34.97;100.00
23321;BME280;33376;51.306;4.752;2023-06-10T09:14:08;100161.78;;;34.83;100.00
23321;BME280;33376;51.306;4.752;2023-06-10T09:16:34;100194.38;;;34.70;100.00
23321;BME280;33376;51.306;4.752;2023-06-10T09:18:59;100105.75;;;34.99;100.00
23321;BME280;33376;51.306;4.752;2023-06-10T09:21:24;100107.41;;;34.79;100.00
23321;BME280;33376;51.306;4.752;2023-06-10T09:23:50;100103.13;;;34.40;100.00
23321;BME280;33376;51.306;4.752;2023-06-10T09:26:15;100159.97;;;34.13;100.00
23321;BME280;33376;51.306;4.752;2023-06-10T09:28:44;100270.50;;;33.60;100.00
23321;BME280;33376;51.306;4.752;2023-06-10T09:31:09;100170.56;;;34.04;100.00
23321;BME280;33376;51.306;4.752;2023-06-10T09:33:37;100204.25;;;34.66;100.00
23321;BME280;33376;51.306;4.752;2023-06-10T09:36:04;100120.59;;;35.25;100.00
23321;BME280;33376;51.306;4.752;2023-06-10T09:38:32;100320.13;;;33.53;100.00
23321;BME280;33376;51.306;4.752;2023-06-10T09:40:58;100221.91;;;34.32;100.00
23321;BME280;33376;51.306;4.752;2023-06-10T09:43:26;100145.41;;;34.98;100.00
23321;BME280;33376;51.306;4.752;2023-06-10T09:46:02;100076.56;;;35.35;100.00
23321;BME280;33376;51.306;4.752;2023-06-10T09:48:28;100126.47;;;34.59;100.00
23321;BME280;33376;51.306;4.752;2023-06-10T09:50:53;100322.19;;;34.36;100.00
23321;BME280;33376;51.306;4.752;2023-06-10T09:53:18;100254.34;;;33.63;100.00
23321;BME280;33376;51.306;4.752;2023-06-10T09:55:43;100238.56;;;34.03;100.00
23321;BME280;33376;51.306;4.752;2023-06-10T09:58:09;100173.25;;;34.37;100.00
23321;BME280;33376;51.306;4.752;2023-06-10T10:00:34;100212.00;;;34.31;100.00
23321;BME280;33376;51.306;4.752;2023-06-10T10:03:00;100206.22;;;34.49;100.00
23321;BME280;33376;51.306;4.752;2023-06-10T10:05:26;100206.44;;;34.64;100.00
23321;BME280;33376;51.306;4.752;2023-06-10T10:07:51;100165.09;;;34.64;100.00
23321;BME280;33376;51.306;4.752;2023-06-10T10:10:18;100149.47;;;34.48;100.00
23321;BME280;33376;51.306;4.752;2023-06-10T10:12:43;100104.13;;;34.55;100.00
23321;BME280;33376;51.306;4.752;2023-06-10T10:15:11;100144.41;;;34.40;100.00
23321;BME280;33376;51.306;4.752;2023-06-10T10:20:23;100104.56;;;33.87;100.00
23321;BME280;33376;51.306;4.752;2023-06-10T10:22:51;100215.63;;;32.97;100.00
23321;BME280;33376;51.306;4.752;2023-06-10T10:25:23;100158.91;;;33.19;100.00
23321;BME280;33376;51.306;4.752;2023-06-10T10:27:57;100160.97;;;33.40;100.00
23321;BME280;33376;51.306;4.752;2023-06-10T10:30:25;100031.38;;;35.04;100.00
23321;BME280;33376;51.306;4.752;2023-06-10T10:35:16;100172.13;;;34.55;100.00
23321;BME280;33376;51.306;4.752;2023-06-10T10:37:46;100105.25;;;33.61;100.00
23321;BME280;33376;51.306;4.752;2023-06-10T10:40:12;100054.53;;;34.12;100.00
23321;BME280;33376;51.306;4.752;2023-06-10T10:42:39;100045.34;;;34.71;100.00
23321;BME280;33376;51.306;4.752;2023-06-10T10:45:06;100112.00;;;34.08;100.00
23321;BME280;33376;51.306;4.752;2023-06-10T10:47:31;100030.03;;;34.11;100.00
23321;BME280;33376;51.306;4.752;2023-06-10T10:49:58;100136.31;;;33.95;100.00
23321;BME280;33376;51.306;4.752;2023-06-10T10:52:24;100165.75;;;33.94;100.00
23321;BME280;33376;51.306;4.752;2023-06-10T10:54:49;100067.97;;;34.08;100.00
23321;BME280;33376;51.306;4.752;2023-06-10T10:57:21;100180.59;;;33.93;100.00
23321;BME280;33376;51.306;4.752;2023-06-10T10:59:56;100136.91;;;33.97;100.00
23321;BME280;33376;51.306;4.752;2023-06-10T11:05:07;100172.22;;;33.11;100.00
23321;BME280;33376;51.306;4.752;2023-06-10T11:07:32;100260.44;;;33.26;100.00
23321;BME280;33376;51.306;4.752;2023-06-10T11:10:08;100000.94;;;32.89;100.00
23321;BME280;33376;51.306;4.752;2023-06-10T11:15:18;100046.06;;;32.81;100.00
23321;BME280;33376;51.306;4.752;2023-06-10T11:23:10;100015.50;;;32.89;100.00
23321;BME280;33376;51.306;4.752;2023-06-10T11:25:39;100132.09;;;33.26;100.00
23321;BME280;33376;51.306;4.752;2023-06-10T11:28:17;100141.38;;;32.41;100.00
23321;BME280;33376;51.306;4.752;2023-06-10T11:30:42;100102.44;;;32.55;100.00
23321;BME280;33376;51.306;4.752;2023-06-10T11:33:07;99962.31;;;33.12;100.00
23321;BME280;33376;51.306;4.752;2023-06-10T11:35:33;99956.31;;;32.98;100.00
23321;BME280;33376;51.306;4.752;2023-06-10T11:37:58;100087.03;;;33.11;100.00
23321;BME280;33376;51.306;4.752;2023-06-10T11:40:23;99993.75;;;33.54;100.00
23321;BME280;33376;51.306;4.752;2023-06-10T11:42:49;100041.91;;;33.07;100.00
23321;BME280;33376;51.306;4.752;2023-06-10T11:45:14;100027.44;;;33.44;100.00
23321;BME280;33376;51.306;4.752;2023-06-10T11:47:41;100086.78;;;33.12;100.00
23321;BME280;33376;51.306;4.752;2023-06-10T11:50:27;100089.41;;;32.91;100.00
23321;BME280;33376;51.306;4.752;2023-06-10T11:52:52;100006.06;;;32.85;100.00
23321;BME280;33376;51.306;4.752;2023-06-10T11:55:20;99903.81;;;33.49;100.00
23321;BME280;33376;51.306;4.752;2023-06-10T11:57:46;100043.00;;;33.22;100.00
23321;BME280;33376;51.306;4.752;2023-06-10T12:00:11;99951.31;;;32.95;100.00
23321;BME280;33376;51.306;4.752;2023-06-10T12:02:37;99929.31;;;33.12;100.00
23321;BME280;33376;51.306;4.752;2023-06-10T12:05:12;99930.38;;;33.27;100.00
23321;BME280;33376;51.306;4.752;2023-06-10T12:07:37;99908.53;;;32.99;100.00
23321;BME280;33376;51.306;4.752;2023-06-10T12:10:02;99872.25;;;32.64;100.00
23321;BME280;33376;51.306;4.752;2023-06-10T12:12:28;99829.88;;;32.77;100.00
23321;BME280;33376;51.306;4.752;2023-06-10T12:14:54;99959.56;;;32.50;100.00
23321;BME280;33376;51.306;4.752;2023-06-10T12:17:21;99885.75;;;33.58;100.00
23321;BME280;33376;51.306;4.752;2023-06-10T12:19:47;99845.13;;;34.40;100.00
23321;BME280;33376;51.306;4.752;2023-06-10T12:22:13;99778.09;;;34.61;100.00
23321;BME280;33376;51.306;4.752;2023-06-10T12:27:24;99847.91;;;33.44;100.00
23321;BME280;33376;51.306;4.752;2023-06-10T12:29:52;100005.38;;;33.06;100.00
23321;BME280;33376;51.306;4.752;2023-06-10T12:32:21;99926.59;;;32.34;100.00
23321;BME280;33376;51.306;4.752;2023-06-10T12:35:01;99999.59;;;32.35;100.00
23321;BME280;33376;51.306;4.752;2023-06-10T12:37:28;99919.66;;;32.31;100.00
23321;BME280;33376;51.306;4.752;2023-06-10T12:39:54;100023.75;;;32.61;100.00
23321;BME280;33376;51.306;4.752;2023-06-10T12:42:21;99805.09;;;34.33;100.00
23321;BME280;33376;51.306;4.752;2023-06-10T12:44:47;99927.16;;;32.97;100.00
23321;BME280;33376;51.306;4.752;2023-06-10T12:47:17;99922.66;;;32.58;100.00
23321;BME280;33376;51.306;4.752;2023-06-10T12:49:43;99894.72;;;32.94;100.00
23321;BME280;33376;51.306;4.752;2023-06-10T12:52:08;99998.31;;;32.37;100.00
23321;BME280;33376;51.306;4.752;2023-06-10T12:54:33;99915.41;;;32.24;100.00
23321;BME280;33376;51.306;4.752;2023-06-10T12:56:59;100001.72;;;32.16;100.00
23321;BME280;33376;51.306;4.752;2023-06-10T12:59:24;100024.53;;;32.45;100.00